sensor_id;sensor_type;location;lat;lon;timestamp;temperature;humidity
5128;DHT22;2582;48.770;9.190;2023-10-08T00:01:35;16.10;99.90
5128;DHT22;2582;48.770;9.190;2023-10-08T00:04:06;16.10;99.90
5128;DHT22;2582;48.770;9.190;2023-10-08T00:06:33;16.10;99.90
5128;DHT22;2582;48.770;9.190;2023-10-08T00:08:59;16.10;99.90
5128;DHT22;2582;48.770;9.190;2023-10-08T00:11:37;16.10;99.90
5128;DHT22;2582;48.770;9.190;2023-10-08T00:14:04;16.20;99.90
5128;DHT22;2582;48.770;9.190;2023-10-08T00:16:46;16.20;99.90
5128;DHT22;2582;48.770;9.190;2023-10-08T00:19:15;16.30;99.90
5128;DHT22;2582;48.770;9.190;2023-10-08T00:21:43;16.40;99.90
5128;DHT22;2582;48.770;9.190;2023-10-08T00:24:10;16.30;99.90
5128;DHT22;2582;48.770;9.190;2023-10-08T00:26:37;16.40;99.90
5128;DHT22;2582;48.770;9.190;2023-10-08T00:29:07;16.30;99.90
5128;DHT22;2582;48.770;9.190;2023-10-08T00:31:40;16.40;99.90
5128;DHT22;2582;48.770;9.190;2023-10-08T00:34:07;16.40;99.90
5128;DHT22;2582;48.770;9.190;2023-10-08T00:36:43;16.50;99.90
5128;DHT22;2582;48.770;9.190;2023-10-08T00:39:10;16.40;99.90
5128;DHT22;2582;48.770;9.190;2023-10-08T00:41:42;16.40;99.90
5128;DHT22;2582;48.770;9.190;2023-10-08T00:44:09;16.30;99.90
5128;DHT22;2582;48.770;9.190;2023-10-08T00:46:39;16.40;99.90
5128;DHT22;2582;48.770;9.190;2023-10-08T00:49:13;16.50;99.90
5128;DHT22;2582;48.770;9.190;2023-10-08T00:51:51;16.50;99.90
5128;DHT22;2582;48.770;9.190;2023-10-08T00:54:46;16.50;99.90
5128;DHT22;2582;48.770;9.190;2023-10-08T00:57:28;16.50;99.90
5128;DHT22;2582;48.770;9.190;2023-10-08T00:59:55;16.50;99.90
5128;DHT22;2582;48.770;9.190;2023-10-08T01:02:31;16.50;99.90
5128;DHT22;2582;48.770;9.190;2023-10-08T01:05:15;16.50;99.90
5128;DHT22;2582;48.770;9.190;2023-10-08T01:07:46;16.50;99.90
5128;DHT22;2582;48.770;9.190;2023-10-08T01:10:13;16.50;99.90
5128;DHT22;2582;48.770;9.190;2023-10-08T01:12:44;16.50;99.90
5128;DHT22;2582;48.770;9.190;2023-10-08T01:15:21;16.50;99.90
5128;DHT22;2582;48.770;9.190;2023-10-08T01:17:53;16.40;99.90
5128;DHT22;2582;48.770;9.190;2023-10-08T01:20:31;16.30;99.90
5128;DHT22;2582;48.770;9.190;2023-10-08T01:23:03;16.40;99.90
5128;DHT22;2582;48.770;9.190;2023-10-08T01:25:29;16.40;99.90
5128;DHT22;2582;48.770;9.190;2023-10-08T01:27:58;16.30;99.90
5128;DHT22;2582;48.770;9.190;2023-10-08T01:30:34;16.30;99.90
5128;DHT22;2582;48.770;9.190;2023-10-08T01:33:06;16.10;99.90
5128;DHT22;2582;48.770;9.190;2023-10-08T01:35:36;16.10;99.90
5128;DHT22;2582;48.770;9.190;2023-10-08T01:38:02;16.10;99.90
5128;DHT22;2582;48.770;9.190;2023-10-08T01:40:29;15.90;99.90
5128;DHT22;2582;48.770;9.190;2023-10-08T01:42:56;15.90;99.90
5128;DHT22;2582;48.770;9.190;2023-10-08T01:45:29;16.00;99.90
5128;DHT22;2582;48.770;9.190;2023-10-08T01:47:56;15.90;99.90
5128;DHT22;2582;48.770;9.190;2023-10-08T01:50:22;16.00;99.90
5128;DHT22;2582;48.770;9.190;2023-10-08T01:52:51;15.90;99.90
5128;DHT22;2582;48.770;9.190;2023-10-08T01:55:17;15.90;99.90
5128;DHT22;2582;48.770;9.190;2023-10-08T01:57:46;15.90;99.90
5128;DHT22;2582;48.770;9.190;2023-10-08T02:00:12;15.90;99.90
5128;DHT22;2582;48.770;9.190;2023-10-08T02:02:51;16.00;99.90
5128;DHT22;2582;48.770;9.190;2023-10-08T02:05:17;16.00;99.90
5128;DHT22;2582;48.770;9.190;2023-10-08T02:07:44;16.00;99.90
5128;DHT22;2582;48.770;9.190;2023-10-08T02:10:10;15.90;99.90
5128;DHT22;2582;48.770;9.190;2023-10-08T02:12:42;15.80;99.90
5128;DHT22;2582;48.770;9.190;2023-10-08T02:15:08;15.80;99.90
5128;DHT22;2582;48.770;9.190;2023-10-08T02:17:37;15.80;99.90
5128;DHT22;2582;48.770;9.190;2023-10-08T02:20:03;15.80;99.90
5128;DHT22;2582;48.770;9.190;2023-10-08T02:22:31;15.60;99.90
5128;DHT22;2582;48.770;9.190;2023-10-08T02:24:58;15.60;99.90
5128;DHT22;2582;48.770;9.190;2023-10-08T02:27:30;15.50;99.90
5128;DHT22;2582;48.770;9.190;2023-10-08T02:29:58;15.40;99.90
5128;DHT22;2582;48.770;9.190;2023-10-08T02:32:23;15.20;99.90
5128;DHT22;2582;48.770;9.190;2023-10-08T02:34:49;15.20;99.90
5128;DHT22;2582;48.770;9.190;2023-10-08T02:37:16;15.10;99.90
5128;DHT22;2582;48.770;9.190;2023-10-08T02:39:41;15.10;99.90
5128;DHT22;2582;48.770;9.190;2023-10-08T02:42:08;15.20;99.90
5128;DHT22;2582;48.770;9.190;2023-10-08T02:44:36;15.00;99.90
5128;DHT22;2582;48.770;9.190;2023-10-08T02:47:08;14.90;99.90
5128;DHT22;2582;48.770;9.190;2023-10-08T02:49:34;14.90;99.90
5128;DHT22;2582;48.770;9.190;2023-10-08T02:52:00;14.90;99.90
5128;DHT22;2582;48.770;9.190;2023-10-08T02:54:29;14.90;99.90
5128;DHT22;2582;48.770;9.190;2023-10-08T02:57:02;14.90;99.90
5128;DHT22;2582;48.770;9.190;2023-10-08T02:59:30;14.80;99.90
5128;DHT22;2582;48.770;9.190;2023-10-08T03:02:07;14.70;99.90
5128;DHT22;2582;48.770;9.190;2023-10-08T03:04:43;14.70;99.90
5128;DHT22;2582;48.770;9.190;2023-10-08T03:07:16;14.80;99.90
5128;DHT22;2582;48.770;9.190;2023-10-08T03:09:58;14.70;99.90
5128;DHT22;2582;48.770;9.190;2023-10-08T03:12:47;14.50;99.90
5128;DHT22;2582;48.770;9.190;2023-10-08T03:15:14;14.60;99.90
5128;DHT22;2582;48.770;9.190;2023-10-08T03:17:54;14.60;99.90
5128;DHT22;2582;48.770;9.190;2023-10-08T03:20:23;14.50;99.90
5128;DHT22;2582;48.770;9.190;2023-10-08T03:23:07;14.60;99.90
5128;DHT22;2582;48.770;9.190;2023-10-08T03:25:53;14.60;99.90
5128;DHT22;2582;48.770;9.190;2023-10-08T03:28:27;14.60;99.90
5128;DHT22;2582;48.770;9.190;2023-10-08T03:30:56;14.70;99.90
5128;DHT22;2582;48.770;9.190;2023-10-08T03:33:36;14.70;99.90
5128;DHT22;2582;48.770;9.190;2023-10-08T03:36:03;14.70;99.90
5128;DHT22;2582;48.770;9.190;2023-10-08T03:38:59;14.70;99.90
5128;DHT22;2582;48.770;9.190;2023-10-08T03:41:34;14.70;99.90
5128;DHT22;2582;48.770;9.190;2023-10-08T03:44:05;14.60;99.90
5128;DHT22;2582;48.770;9.190;2023-10-08T03:46:32;14.40;99.90
5128;DHT22;2582;48.770;9.190;2023-10-08T03:49:05;14.50;99.90
5128;DHT22;2582;48.770;9.190;2023-10-08T03:51:37;14.60;99.90
5128;DHT22;2582;48.770;9.190;2023-10-08T03:54:08;14.50;99.90
5128;DHT22;2582;48.770;9.190;2023-10-08T03:56:40;14.40;99.90
5128;DHT22;2582;48.770;9.190;2023-10-08T03:59:14;14.40;99.90
5128;DHT22;2582;48.770;9.190;2023-10-08T04:01:46;14.40;99.90
5128;DHT22;2582;48.770;9.190;2023-10-08T04:04:15;14.40;99.90
5128;DHT22;2582;48.770;9.190;2023-10-08T04:06:41;14.30;99.90
5128;DHT22;2582;48.770;9.190;2023-10-08T04:09:15;14.30;99.90
5128;DHT22;2582;48.770;9.190;2023-10-08T04:11:50;14.30;99.90
5128;DHT22;2582;48.770;9.190;2023-10-08T04:14:22;14.20;99.90
5128;DHT22;2582;48.770;9.190;2023-10-08T04:16:48;14.20;99.90
5128;DHT22;2582;48.770;9.190;2023-10-08T04:19:18;14.30;99.90
5128;DHT22;2582;48.770;9.190;2023-10-08T04:21:44;14.30;99.90
5128;DHT22;2582;48.770;9.190;2023-10-08T04:24:11;14.20;99.90
5128;DHT22;2582;48.770;9.190;2023-10-08T04:26:40;14.20;99.90
5128;DHT22;2582;48.770;9.190;2023-10-08T04:29:06;14.30;99.90
5128;DHT22;2582;48.770;9.190;2023-10-08T04:31:35;14.30;99.90
5128;DHT22;2582;48.770;9.190;2023-10-08T04:34:05;14.30;99.90
5128;DHT22;2582;48.770;9.190;2023-10-08T04:36:36;14.30;99.90
5128;DHT22;2582;48.770;9.190;2023-10-08T04:39:04;14.30;99.90
5128;DHT22;2582;48.770;9.190;2023-10-08T04:41:40;14.40;99.90
5128;DHT22;2582;48.770;9.190;2023-10-08T04:44:09;14.30;99.90
5128;DHT22;2582;48.770;9.190;2023-10-08T04:46:43;14.30;99.90
5128;DHT22;2582;48.770;9.190;2023-10-08T04:49:11;14.40;99.90
5128;DHT22;2582;48.770;9.190;2023-10-08T04:51:53;14.40;99.90
5128;DHT22;2582;48.770;9.190;2023-10-08T04:54:28;14.50;99.90
5128;DHT22;2582;48.770;9.190;2023-10-08T04:56:58;14.40;99.90
5128;DHT22;2582;48.770;9.190;2023-10-08T04:59:28;14.50;99.90
5128;DHT22;2582;48.770;9.190;2023-10-08T05:02:03;14.60;99.90
5128;DHT22;2582;48.770;9.190;2023-10-08T05:04:50;14.60;99.90
5128;DHT22;2582;48.770;9.190;2023-10-08T05:07:32;14.50;99.90
5128;DHT22;2582;48.770;9.190;2023-10-08T05:10:11;14.40;99.90
5128;DHT22;2582;48.770;9.190;2023-10-08T05:12:57;14.30;99.90
5128;DHT22;2582;48.770;9.190;2023-10-08T05:15:43;14.40;99.90
5128;DHT22;2582;48.770;9.190;2023-10-08T05:18:28;14.30;99.90
5128;DHT22;2582;48.770;9.190;2023-10-08T05:21:14;14.30;99.90
5128;DHT22;2582;48.770;9.190;2023-10-08T05:23:53;14.20;99.90
5128;DHT22;2582;48.770;9.190;2023-10-08T05:26:34;14.30;99.90
5128;DHT22;2582;48.770;9.190;2023-10-08T05:29:08;14.40;99.90
5128;DHT22;2582;48.770;9.190;2023-10-08T05:31:52;14.40;99.90
5128;DHT22;2582;48.770;9.190;2023-10-08T05:34:37;14.40;99.90
5128;DHT22;2582;48.770;9.190;2023-10-08T05:37:16;14.30;99.90
5128;DHT22;2582;48.770;9.190;2023-10-08T05:39:58;14.20;99.90
5128;DHT22;2582;48.770;9.190;2023-10-08T05:42:37;14.10;99.90
5128;DHT22;2582;48.770;9.190;2023-10-08T05:45:11;14.20;99.90
5128;DHT22;2582;48.770;9.190;2023-10-08T05:47:37;14.20;99.90
5128;DHT22;2582;48.770;9.190;2023-10-08T05:50:04;14.30;99.90
5128;DHT22;2582;48.770;9.190;2023-10-08T05:52:46;14.30;99.90
5128;DHT22;2582;48.770;9.190;2023-10-08T05:55:24;14.30;99.90
5128;DHT22;2582;48.770;9.190;2023-10-08T05:57:55;14.30;99.90
5128;DHT22;2582;48.770;9.190;2023-10-08T06:00:41;14.40;99.90
5128;DHT22;2582;48.770;9.190;2023-10-08T06:03:19;14.40;99.90
5128;DHT22;2582;48.770;9.190;2023-10-08T06:06:06;14.30;99.90
5128;DHT22;2582;48.770;9.190;2023-10-08T06:08:41;14.40;99.90
5128;DHT22;2582;48.770;9.190;2023-10-08T06:11:25;14.30;99.90
5128;DHT22;2582;48.770;9.190;2023-10-08T06:14:09;14.40;99.90
5128;DHT22;2582;48.770;9.190;2023-10-08T06:16:53;14.40;99.90
5128;DHT22;2582;48.770;9.190;2023-10-08T06:19:39;14.40;99.90
5128;DHT22;2582;48.770;9.190;2023-10-08T06:22:05;14.50;99.90
5128;DHT22;2582;48.770;9.190;2023-10-08T06:24:30;14.50;99.90
5128;DHT22;2582;48.770;9.190;2023-10-08T06:26:59;14.50;99.90
5128;DHT22;2582;48.770;9.190;2023-10-08T06:29:30;14.50;99.90
5128;DHT22;2582;48.770;9.190;2023-10-08T06:31:58;14.60;99.90
5128;DHT22;2582;48.770;9.190;2023-10-08T06:34:27;14.60;99.90
5128;DHT22;2582;48.770;9.190;2023-10-08T06:36:54;14.60;99.90
5128;DHT22;2582;48.770;9.190;2023-10-08T06:39:21;14.70;99.90
5128;DHT22;2582;48.770;9.190;2023-10-08T06:41:52;14.70;99.90
5128;DHT22;2582;48.770;9.190;2023-10-08T06:44:18;14.70;99.90
5128;DHT22;2582;48.770;9.190;2023-10-08T06:46:44;14.80;99.90
5128;DHT22;2582;48.770;9.190;2023-10-08T06:49:11;14.80;99.90
5128;DHT22;2582;48.770;9.190;2023-10-08T06:51:40;14.90;99.90
5128;DHT22;2582;48.770;9.190;2023-10-08T06:54:08;14.90;99.90
5128;DHT22;2582;48.770;9.190;2023-10-08T06:56:36;14.90;99.90
5128;DHT22;2582;48.770;9.190;2023-10-08T06:59:02;15.00;99.90
5128;DHT22;2582;48.770;9.190;2023-10-08T07:01:28;15.00;99.90
5128;DHT22;2582;48.770;9.190;2023-10-08T07:04:04;15.00;99.90
5128;DHT22;2582;48.770;9.190;2023-10-08T07:06:32;15.10;99.90
5128;DHT22;2582;48.770;9.190;2023-10-08T07:09:00;15.20;99.90
5128;DHT22;2582;48.770;9.190;2023-10-08T07:11:30;15.30;99.90
5128;DHT22;2582;48.770;9.190;2023-10-08T07:14:02;15.40;99.90
5128;DHT22;2582;48.770;9.190;2023-10-08T07:16:32;15.50;99.90
5128;DHT22;2582;48.770;9.190;2023-10-08T07:18:58;15.60;99.90
5128;DHT22;2582;48.770;9.190;2023-10-08T07:21:27;15.60;99.90
5128;DHT22;2582;48.770;9.190;2023-10-08T07:24:10;15.80;99.90
5128;DHT22;2582;48.770;9.190;2023-10-08T07:26:40;16.00;99.90
5128;DHT22;2582;48.770;9.190;2023-10-08T07:29:12;16.20;99.90
5128;DHT22;2582;48.770;9.190;2023-10-08T07:31:39;16.40;99.90
5128;DHT22;2582;48.770;9.190;2023-10-08T07:34:08;16.70;99.90
5128;DHT22;2582;48.770;9.190;2023-10-08T07:37:03;16.90;99.90
5128;DHT22;2582;48.770;9.190;2023-10-08T07:39:31;17.40;99.90
5128;DHT22;2582;48.770;9.190;2023-10-08T07:41:57;17.80;99.90
5128;DHT22;2582;48.770;9.190;2023-10-08T07:44:25;18.00;99.90
5128;DHT22;2582;48.770;9.190;2023-10-08T07:46:53;18.20;99.90
5128;DHT22;2582;48.770;9.190;2023-10-08T07:49:25;18.40;99.90
5128;DHT22;2582;48.770;9.190;2023-10-08T07:51:51;18.50;99.90
5128;DHT22;2582;48.770;9.190;2023-10-08T07:54:27;18.70;99.90
5128;DHT22;2582;48.770;9.190;2023-10-08T07:56:54;18.90;99.90
5128;DHT22;2582;48.770;9.190;2023-10-08T07:59:40;18.80;99.90
5128;DHT22;2582;48.770;9.190;2023-10-08T08:02:13;18.80;99.90
5128;DHT22;2582;48.770;9.190;2023-10-08T08:04:42;19.00;99.60
5128;DHT22;2582;48.770;9.190;2023-10-08T08:07:16;19.10;99.90
5128;DHT22;2582;48.770;9.190;2023-10-08T08:09:52;19.30;99.90
5128;DHT22;2582;48.770;9.190;2023-10-08T08:12:25;19.40;99.90
5128;DHT22;2582;48.770;9.190;2023-10-08T08:14:51;19.50;99.90
5128;DHT22;2582;48.770;9.190;2023-10-08T08:17:20;19.60;99.90
5128;DHT22;2582;48.770;9.190;2023-10-08T08:19:48;19.50;99.90
5128;DHT22;2582;48.770;9.190;2023-10-08T08:22:18;19.00;99.90
5128;DHT22;2582;48.770;9.190;2023-10-08T08:24:48;18.60;99.90
5128;DHT22;2582;48.770;9.190;2023-10-08T08:27:19;18.60;99.90
5128;DHT22;2582;48.770;9.190;2023-10-08T08:29:57;18.80;99.90
5128;DHT22;2582;48.770;9.190;2023-10-08T08:32:38;18.50;99.90
5128;DHT22;2582;48.770;9.190;2023-10-08T08:35:11;18.40;99.90
5128;DHT22;2582;48.770;9.190;2023-10-08T08:37:37;18.40;99.90
5128;DHT22;2582;48.770;9.190;2023-10-08T08:40:06;18.40;99.90
5128;DHT22;2582;48.770;9.190;2023-10-08T08:42:46;18.40;99.90
5128;DHT22;2582;48.770;9.190;2023-10-08T08:45:15;18.50;99.90
5128;DHT22;2582;48.770;9.190;2023-10-08T08:47:43;18.70;99.90
5128;DHT22;2582;48.770;9.190;2023-10-08T08:50:10;18.90;99.90
5128;DHT22;2582;48.770;9.190;2023-10-08T08:52:36;19.00;99.90
5128;DHT22;2582;48.770;9.190;2023-10-08T08:55:06;19.20;99.90
5128;DHT22;2582;48.770;9.190;2023-10-08T08:57:43;19.50;99.90
5128;DHT22;2582;48.770;9.190;2023-10-08T09:00:11;19.70;99.80
5128;DHT22;2582;48.770;9.190;2023-10-08T09:02:38;19.50;99.90
5128;DHT22;2582;48.770;9.190;2023-10-08T09:05:04;19.80;99.80
5128;DHT22;2582;48.770;9.190;2023-10-08T09:07:57;20.10;99.40
5128;DHT22;2582;48.770;9.190;2023-10-08T09:10:25;20.50;98.10
5128;DHT22;2582;48.770;9.190;2023-10-08T09:12:55;20.70;97.70
5128;DHT22;2582;48.770;9.190;2023-10-08T09:15:25;20.80;98.10
5128;DHT22;2582;48.770;9.190;2023-10-08T09:17:52;20.90;98.70
5128;DHT22;2582;48.770;9.190;2023-10-08T09:20:18;21.00;98.00
5128;DHT22;2582;48.770;9.190;2023-10-08T09:22:46;21.10;97.20
5128;DHT22;2582;48.770;9.190;2023-10-08T09:25:20;21.40;96.80
5128;DHT22;2582;48.770;9.190;2023-10-08T09:27:51;21.70;96.10
5128;DHT22;2582;48.770;9.190;2023-10-08T09:30:21;21.70;96.00
5128;DHT22;2582;48.770;9.190;2023-10-08T09:32:47;21.90;95.00
5128;DHT22;2582;48.770;9.190;2023-10-08T09:35:15;22.40;94.20
5128;DHT22;2582;48.770;9.190;2023-10-08T09:37:41;22.50;94.30
5128;DHT22;2582;48.770;9.190;2023-10-08T09:40:11;22.80;93.40
5128;DHT22;2582;48.770;9.190;2023-10-08T09:42:37;22.70;93.50
5128;DHT22;2582;48.770;9.190;2023-10-08T09:45:05;23.10;93.60
5128;DHT22;2582;48.770;9.190;2023-10-08T09:47:36;23.40;93.90
5128;DHT22;2582;48.770;9.190;2023-10-08T09:50:04;23.80;93.90
5128;DHT22;2582;48.770;9.190;2023-10-08T09:55:31;24.10;93.90
5128;DHT22;2582;48.770;9.190;2023-10-08T09:57:57;24.30;92.70
5128;DHT22;2582;48.770;9.190;2023-10-08T10:00:25;24.50;92.20
5128;DHT22;2582;48.770;9.190;2023-10-08T10:02:59;24.60;91.30
5128;DHT22;2582;48.770;9.190;2023-10-08T10:05:29;24.40;91.10
5128;DHT22;2582;48.770;9.190;2023-10-08T10:07:56;24.10;90.80
5128;DHT22;2582;48.770;9.190;2023-10-08T10:10:30;24.10;90.40
5128;DHT22;2582;48.770;9.190;2023-10-08T10:13:10;24.30;90.30
5128;DHT22;2582;48.770;9.190;2023-10-08T10:15:41;24.40;90.90
5128;DHT22;2582;48.770;9.190;2023-10-08T10:18:27;24.50;90.80
5128;DHT22;2582;48.770;9.190;2023-10-08T10:23:41;24.00;91.40
5128;DHT22;2582;48.770;9.190;2023-10-08T10:31:33;24.00;90.80
5128;DHT22;2582;48.770;9.190;2023-10-08T10:34:08;24.20;90.50
5128;DHT22;2582;48.770;9.190;2023-10-08T10:36:35;24.40;90.10
5128;DHT22;2582;48.770;9.190;2023-10-08T10:39:01;24.60;90.60
5128;DHT22;2582;48.770;9.190;2023-10-08T10:41:41;24.50;90.30
5128;DHT22;2582;48.770;9.190;2023-10-08T10:44:07;24.10;91.40
5128;DHT22;2582;48.770;9.190;2023-10-08T10:46:34;23.90;90.40
5128;DHT22;2582;48.770;9.190;2023-10-08T10:49:07;23.80;90.30
5128;DHT22;2582;48.770;9.190;2023-10-08T10:51:50;23.80;90.70
5128;DHT22;2582;48.770;9.190;2023-10-08T10:54:25;24.40;90.50
5128;DHT22;2582;48.770;9.190;2023-10-08T10:56:53;24.60;90.40
5128;DHT22;2582;48.770;9.190;2023-10-08T10:59:31;24.40;90.30
5128;DHT22;2582;48.770;9.190;2023-10-08T11:02:03;25.00;90.10
5128;DHT22;2582;48.770;9.190;2023-10-08T11:04:33;25.40;89.70
5128;DHT22;2582;48.770;9.190;2023-10-08T11:07:11;25.20;89.30
5128;DHT22;2582;48.770;9.190;2023-10-08T11:09:37;25.20;89.20
5128;DHT22;2582;48.770;9.190;2023-10-08T11:12:06;25.60;87.80
5128;DHT22;2582;48.770;9.190;2023-10-08T11:14:42;25.90;87.30
5128;DHT22;2582;48.770;9.190;2023-10-08T11:17:22;25.70;86.00
5128;DHT22;2582;48.770;9.190;2023-10-08T11:19:48;26.00;86.70
5128;DHT22;2582;48.770;9.190;2023-10-08T11:22:15;25.80;86.30
5128;DHT22;2582;48.770;9.190;2023-10-08T11:24:45;25.60;87.70
5128;DHT22;2582;48.770;9.190;2023-10-08T11:27:18;25.60;87.80
5128;DHT22;2582;48.770;9.190;2023-10-08T11:30:01;26.10;89.80
5128;DHT22;2582;48.770;9.190;2023-10-08T11:32:27;27.40;84.80
5128;DHT22;2582;48.770;9.190;2023-10-08T11:34:56;28.40;83.60
5128;DHT22;2582;48.770;9.190;2023-10-08T11:37:32;29.00;81.40
5128;DHT22;2582;48.770;9.190;2023-10-08T11:40:02;29.00;77.30
5128;DHT22;2582;48.770;9.190;2023-10-08T11:42:43;30.00;74.10
5128;DHT22;2582;48.770;9.190;2023-10-08T11:45:10;31.10;70.60
5128;DHT22;2582;48.770;9.190;2023-10-08T11:47:49;31.60;67.10
5128;DHT22;2582;48.770;9.190;2023-10-08T11:50:27;31.90;64.00
5128;DHT22;2582;48.770;9.190;2023-10-08T11:52:57;31.50;64.40
5128;DHT22;2582;48.770;9.190;2023-10-08T11:55:27;29.90;65.70
5128;DHT22;2582;48.770;9.190;2023-10-08T11:57:52;29.20;69.20
5128;DHT22;2582;48.770;9.190;2023-10-08T12:00:18;31.10;68.70
5128;DHT22;2582;48.770;9.190;2023-10-08T12:02:46;32.20;64.20
5128;DHT22;2582;48.770;9.190;2023-10-08T12:05:11;32.50;61.80
5128;DHT22;2582;48.770;9.190;2023-10-08T12:07:47;33.50;59.00
5128;DHT22;2582;48.770;9.190;2023-10-08T12:10:17;33.80;57.90
5128;DHT22;2582;48.770;9.190;2023-10-08T12:12:51;35.30;54.50
5128;DHT22;2582;48.770;9.190;2023-10-08T12:15:23;36.60;51.30
5128;DHT22;2582;48.770;9.190;2023-10-08T12:17:59;35.10;51.50
5128;DHT22;2582;48.770;9.190;2023-10-08T12:20:37;36.10;50.40
5128;DHT22;2582;48.770;9.190;2023-10-08T12:23:07;35.90;48.70
5128;DHT22;2582;48.770;9.190;2023-10-08T12:25:36;35.90;48.00
5128;DHT22;2582;48.770;9.190;2023-10-08T12:28:03;35.70;48.20
5128;DHT22;2582;48.770;9.190;2023-10-08T12:30:33;36.70;47.10
5128;DHT22;2582;48.770;9.190;2023-10-08T12:33:07;34.80;48.10
5128;DHT22;2582;48.770;9.190;2023-10-08T12:35:33;34.70;49.20
5128;DHT22;2582;48.770;9.190;2023-10-08T12:37:58;35.30;47.70
5128;DHT22;2582;48.770;9.190;2023-10-08T12:40:24;36.50;47.10
5128;DHT22;2582;48.770;9.190;2023-10-08T12:42:52;37.40;44.60
5128;DHT22;2582;48.770;9.190;2023-10-08T12:45:18;37.20;43.80
5128;DHT22;2582;48.770;9.190;2023-10-08T12:47:50;36.00;45.50
5128;DHT22;2582;48.770;9.190;2023-10-08T12:50:17;36.60;45.60
5128;DHT22;2582;48.770;9.190;2023-10-08T12:52:49;37.20;43.80
5128;DHT22;2582;48.770;9.190;2023-10-08T12:55:23;38.00;43.10
5128;DHT22;2582;48.770;9.190;2023-10-08T12:57:53;37.90;44.20
5128;DHT22;2582;48.770;9.190;2023-10-08T13:00:22;37.70;43.30
5128;DHT22;2582;48.770;9.190;2023-10-08T13:02:49;38.00;44.30
5128;DHT22;2582;48.770;9.190;2023-10-08T13:05:20;37.80;42.00
5128;DHT22;2582;48.770;9.190;2023-10-08T13:07:53;38.20;43.40
5128;DHT22;2582;48.770;9.190;2023-10-08T13:10:19;37.90;41.50
5128;DHT22;2582;48.770;9.190;2023-10-08T13:12:47;38.30;41.50
5128;DHT22;2582;48.770;9.190;2023-10-08T13:15:13;37.70;39.60
5128;DHT22;2582;48.770;9.190;2023-10-08T13:17:39;37.70;39.00
5128;DHT22;2582;48.770;9.190;2023-10-08T13:20:09;38.00;40.50
5128;DHT22;2582;48.770;9.190;2023-10-08T13:22:40;38.80;39.00
5128;DHT22;2582;48.770;9.190;2023-10-08T13:25:06;36.90;39.20
5128;DHT22;2582;48.770;9.190;2023-10-08T13:27:32;35.80;40.00
5128;DHT22;2582;48.770;9.190;2023-10-08T13:29:58;35.60;39.90
5128;DHT22;2582;48.770;9.190;2023-10-08T13:32:24;35.00;41.40
5128;DHT22;2582;48.770;9.190;2023-10-08T13:34:49;34.30;41.40
5128;DHT22;2582;48.770;9.190;2023-10-08T13:37:15;34.30;41.70
5128;DHT22;2582;48.770;9.190;2023-10-08T13:39:41;34.00;41.20
5128;DHT22;2582;48.770;9.190;2023-10-08T13:42:07;33.70;41.90
5128;DHT22;2582;48.770;9.190;2023-10-08T13:44:33;33.10;42.70
5128;DHT22;2582;48.770;9.190;2023-10-08T13:47:00;34.10;42.40
5128;DHT22;2582;48.770;9.190;2023-10-08T13:49:31;33.10;43.10
5128;DHT22;2582;48.770;9.190;2023-10-08T13:51:57;32.90;44.30
5128;DHT22;2582;48.770;9.190;2023-10-08T13:54:23;33.60;43.40
5128;DHT22;2582;48.770;9.190;2023-10-08T13:56:54;34.30;42.70
5128;DHT22;2582;48.770;9.190;2023-10-08T13:59:20;33.80;42.70
5128;DHT22;2582;48.770;9.190;2023-10-08T14:01:50;34.10;42.70
5128;DHT22;2582;48.770;9.190;2023-10-08T14:04:20;33.60;42.80
5128;DHT22;2582;48.770;9.190;2023-10-08T14:06:51;32.70;44.30
5128;DHT22;2582;48.770;9.190;2023-10-08T14:09:18;33.60;42.90
5128;DHT22;2582;48.770;9.190;2023-10-08T14:11:48;34.60;41.40
5128;DHT22;2582;48.770;9.190;2023-10-08T14:14:16;33.70;42.80
5128;DHT22;2582;48.770;9.190;2023-10-08T14:16:43;32.10;44.80
5128;DHT22;2582;48.770;9.190;2023-10-08T14:19:12;29.90;47.70
5128;DHT22;2582;48.770;9.190;2023-10-08T14:21:42;29.20;49.70
5128;DHT22;2582;48.770;9.190;2023-10-08T14:24:25;28.70;50.50
5128;DHT22;2582;48.770;9.190;2023-10-08T14:26:53;28.40;51.20
5128;DHT22;2582;48.770;9.190;2023-10-08T14:29:22;28.00;52.00
5128;DHT22;2582;48.770;9.190;2023-10-08T14:31:50;27.60;52.20
5128;DHT22;2582;48.770;9.190;2023-10-08T14:34:16;27.60;51.90
5128;DHT22;2582;48.770;9.190;2023-10-08T14:36:45;27.80;52.00
5128;DHT22;2582;48.770;9.190;2023-10-08T14:39:30;27.90;51.90
5128;DHT22;2582;48.770;9.190;2023-10-08T14:42:15;27.70;52.00
5128;DHT22;2582;48.770;9.190;2023-10-08T14:45:00;27.60;52.00
5128;DHT22;2582;48.770;9.190;2023-10-08T14:47:26;27.50;52.50
5128;DHT22;2582;48.770;9.190;2023-10-08T14:49:52;27.00;53.80
5128;DHT22;2582;48.770;9.190;2023-10-08T14:52:18;27.20;54.40
5128;DHT22;2582;48.770;9.190;2023-10-08T14:54:44;27.10;54.60
5128;DHT22;2582;48.770;9.190;2023-10-08T14:57:11;26.90;55.20
5128;DHT22;2582;48.770;9.190;2023-10-08T14:59:40;26.90;55.40
5128;DHT22;2582;48.770;9.190;2023-10-08T15:02:06;26.90;55.40
5128;DHT22;2582;48.770;9.190;2023-10-08T15:04:32;27.50;54.40
5128;DHT22;2582;48.770;9.190;2023-10-08T15:07:01;28.00;53.40
5128;DHT22;2582;48.770;9.190;2023-10-08T15:09:27;28.30;52.50
5128;DHT22;2582;48.770;9.190;2023-10-08T15:11:53;27.80;52.70
5128;DHT22;2582;48.770;9.190;2023-10-08T15:14:20;27.40;53.90
5128;DHT22;2582;48.770;9.190;2023-10-08T15:16:46;26.80;54.80
5128;DHT22;2582;48.770;9.190;2023-10-08T15:19:22;27.00;54.80
5128;DHT22;2582;48.770;9.190;2023-10-08T15:21:49;27.30;54.60
5128;DHT22;2582;48.770;9.190;2023-10-08T15:24:18;27.40;54.70
5128;DHT22;2582;48.770;9.190;2023-10-08T15:26:49;27.70;54.60
5128;DHT22;2582;48.770;9.190;2023-10-08T15:29:18;27.60;54.70
5128;DHT22;2582;48.770;9.190;2023-10-08T15:31:44;27.50;54.90
5128;DHT22;2582;48.770;9.190;2023-10-08T15:34:10;26.80;56.20
5128;DHT22;2582;48.770;9.190;2023-10-08T15:36:38;26.70;56.60
5128;DHT22;2582;48.770;9.190;2023-10-08T15:39:04;26.90;56.80
5128;DHT22;2582;48.770;9.190;2023-10-08T15:41:30;27.00;57.00
5128;DHT22;2582;48.770;9.190;2023-10-08T15:43:56;26.90;58.10
5128;DHT22;2582;48.770;9.190;2023-10-08T15:46:24;26.90;58.70
5128;DHT22;2582;48.770;9.190;2023-10-08T15:48:52;26.80;58.00
5128;DHT22;2582;48.770;9.190;2023-10-08T15:51:17;26.40;58.20
5128;DHT22;2582;48.770;9.190;2023-10-08T15:53:43;26.40;59.00
5128;DHT22;2582;48.770;9.190;2023-10-08T15:56:08;26.40;60.80
5128;DHT22;2582;48.770;9.190;2023-10-08T15:58:34;26.40;62.30
5128;DHT22;2582;48.770;9.190;2023-10-08T16:00:59;26.30;62.50
5128;DHT22;2582;48.770;9.190;2023-10-08T16:03:25;26.40;64.60
5128;DHT22;2582;48.770;9.190;2023-10-08T16:05:51;26.10;65.80
5128;DHT22;2582;48.770;9.190;2023-10-08T16:08:17;25.70;67.90
5128;DHT22;2582;48.770;9.190;2023-10-08T16:10:43;25.30;68.10
5128;DHT22;2582;48.770;9.190;2023-10-08T16:13:08;25.10;70.50
5128;DHT22;2582;48.770;9.190;2023-10-08T16:15:35;24.90;71.50
5128;DHT22;2582;48.770;9.190;2023-10-08T16:18:01;24.60;72.30
5128;DHT22;2582;48.770;9.190;2023-10-08T16:20:28;24.60;73.10
5128;DHT22;2582;48.770;9.190;2023-10-08T16:22:56;24.20;73.90
5128;DHT22;2582;48.770;9.190;2023-10-08T16:25:22;23.90;75.80
5128;DHT22;2582;48.770;9.190;2023-10-08T16:27:49;23.90;77.60
5128;DHT22;2582;48.770;9.190;2023-10-08T16:30:23;23.70;78.20
5128;DHT22;2582;48.770;9.190;2023-10-08T16:32:53;23.60;78.90
5128;DHT22;2582;48.770;9.190;2023-10-08T16:35:19;23.40;80.70
5128;DHT22;2582;48.770;9.190;2023-10-08T16:37:45;23.30;82.40